Hagarstown, IL (62247)

11:24 AM CST on February 10, 2016 (GMT -0600)
Blue Streaks AtmoBug Greenville | | Change Station
CLOSE
Current Station
Personal Weather Station
Location: Greenville, IL
Elevation: 607 ft
Nearby Weather Stations

Elev 607 ft 38.89 °N, 89.40 °W | Updated 9 minutes ago

Mostly Cloudy
Mostly Cloudy
20.8 °F
Feels Like 16 °F
N
3.2
Wind Variable Wind from SSW

Today
High -- | Low -- °F
--% Chance of Precip.
Yesterday
High -- | Low -- °F
Precip. -- in
Pressure 30.16 in
Visibility 10.0 miles
Clouds Clear
Windchill 16 °F
Dew Point 10 °F
Humidity 62%
Rainfall 0.00 in
Snow Depth Not available.
6:54 AM 5:27 PM
Waxing Crescent, 6% visible
METAR KSLO 101715Z AUTO 26008KT 10SM CLR M06/M13 A3016 RMK AO2 T10631135
Pressure 30.16 in
Visibility 10.0 miles
Clouds Clear
Windchill 16 °F
Dew Point 10 °F
Humidity 62%
Rainfall 0.00 in
Snow Depth Not available.
6:54 AM 5:27 PM
Waxing Crescent, 6% visible
METAR KSLO 101715Z AUTO 26008KT 10SM CLR M06/M13 A3016 RMK AO2 T10631135

10-Day Weather Forecast

Almanac

Astronomy

Feb. 10, 2016 Rise Set
Actual Time
Civil Twilight
Nautical Twilight
Astronomical Twilight
Moon
Length of Visible Light
Length of Day
Tomorrow will be .
, % of the Moon is Illuminated

Today's Extremes

State Highs State Lows

Community

WunderPhotos

Upload Photos

1,891,895 photos uploaded!

WunderBlog® & News

Nearby

Air Quality

  Air Quality AQ Index Pollutant
Not available.

Snow Depth

Station Depth Elevation

Earthquake Activity

City Distance Mag. Time & Date
Minimum magnitude displayed is 2.5.

Coastal Water Temperatures

Place Temperature

Stations

Nearby Weather Stations

Station Location Temp. Windchill Dew Point Humidity Wind Precip. Elev Updated Type
                   

Watches & Warnings

There are currently no watches in effect.